sensor_id;sensor_type;location;lat;lon;timestamp;pressure;altitude;pressure_sealevel;temperature;humidity
50123;BME280;36021;48.670;6.184;2023-05-08T00:00:23;99342.34;;;15.51;100.00
50123;BME280;36021;48.670;6.184;2023-05-08T00:02:49;99356.94;;;15.57;100.00
50123;BME280;36021;48.670;6.184;2023-05-08T00:05:14;99353.69;;;15.41;100.00
50123;BME280;36021;48.670;6.184;2023-05-08T00:07:40;99352.16;;;15.27;100.00
50123;BME280;36021;48.670;6.184;2023-05-08T00:10:06;99353.81;;;15.28;100.00
50123;BME280;36021;48.670;6.184;2023-05-08T00:12:32;99357.66;;;15.18;100.00
50123;BME280;36021;48.670;6.184;2023-05-08T00:14:59;99363.97;;;15.10;100.00
50123;BME280;36021;48.670;6.184;2023-05-08T00:17:24;99366.25;;;15.08;100.00
50123;BME280;36021;48.670;6.184;2023-05-08T00:19:50;99363.47;;;15.08;100.00
50123;BME280;36021;48.670;6.184;2023-05-08T00:22:16;99374.44;;;15.13;100.00
50123;BME280;36021;48.670;6.184;2023-05-08T00:24:41;99369.56;;;15.19;100.00
50123;BME280;36021;48.670;6.184;2023-05-08T00:27:06;99380.13;;;15.08;100.00
50123;BME280;36021;48.670;6.184;2023-05-08T00:29:34;99364.97;;;15.14;100.00
50123;BME280;36021;48.670;6.184;2023-05-08T00:32:00;99363.34;;;15.13;100.00
50123;BME280;36021;48.670;6.184;2023-05-08T00:34:26;99360.44;;;15.18;100.00
50123;BME280;36021;48.670;6.184;2023-05-08T00:36:52;99366.38;;;15.03;100.00
50123;BME280;36021;48.670;6.184;2023-05-08T00:39:20;99361.69;;;15.12;100.00
50123;BME280;36021;48.670;6.184;2023-05-08T00:41:46;99367.50;;;15.02;100.00
50123;BME280;36021;48.670;6.184;2023-05-08T00:44:12;99377.66;;;15.06;100.00
50123;BME280;36021;48.670;6.184;2023-05-08T00:46:39;99372.88;;;14.98;100.00
50123;BME280;36021;48.670;6.184;2023-05-08T00:49:05;99381.91;;;15.04;100.00
50123;BME280;36021;48.670;6.184;2023-05-08T00:51:32;99377.72;;;14.93;100.00
50123;BME280;36021;48.670;6.184;2023-05-08T00:53:59;99374.06;;;15.06;100.00
50123;BME280;36021;48.670;6.184;2023-05-08T00:56:25;99377.56;;;15.11;100.00
50123;BME280;36021;48.670;6.184;2023-05-08T00:58:54;99376.97;;;15.23;100.00
50123;BME280;36021;48.670;6.184;2023-05-08T01:01:20;99378.81;;;15.28;100.00
50123;BME280;36021;48.670;6.184;2023-05-08T01:03:45;99371.25;;;15.28;100.00
50123;BME280;36021;48.670;6.184;2023-05-08T01:06:11;99367.09;;;15.39;100.00
50123;BME280;36021;48.670;6.184;2023-05-08T01:08:37;99365.59;;;15.33;100.00
50123;BME280;36021;48.670;6.184;2023-05-08T01:18:38;99377.06;;;15.40;100.00
50123;BME280;36021;48.670;6.184;2023-05-08T01:23:48;99379.72;;;15.45;100.00
50123;BME280;36021;48.670;6.184;2023-05-08T01:26:25;99373.28;;;15.36;100.00
50123;BME280;36021;48.670;6.184;2023-05-08T01:31:49;99376.31;;;15.48;100.00
50123;BME280;36021;48.670;6.184;2023-05-08T01:34:25;99365.59;;;15.55;100.00
50123;BME280;36021;48.670;6.184;2023-05-08T01:37:03;99364.56;;;15.51;100.00
50123;BME280;36021;48.670;6.184;2023-05-08T01:42:00;99373.13;;;15.41;100.00
50123;BME280;36021;48.670;6.184;2023-05-08T01:44:32;99375.13;;;15.41;100.00
50123;BME280;36021;48.670;6.184;2023-05-08T01:46:59;99378.22;;;15.39;100.00
50123;BME280;36021;48.670;6.184;2023-05-08T01:50:12;99383.72;;;15.31;100.00
50123;BME280;36021;48.670;6.184;2023-05-08T01:52:21;99381.13;;;15.34;100.00
50123;BME280;36021;48.670;6.184;2023-05-08T01:55:04;99374.81;;;15.20;100.00
50123;BME280;36021;48.670;6.184;2023-05-08T01:57:36;99376.72;;;15.11;100.00
50123;BME280;36021;48.670;6.184;2023-05-08T02:00:04;99379.50;;;15.11;100.00
50123;BME280;36021;48.670;6.184;2023-05-08T02:02:35;99387.00;;;15.10;100.00
50123;BME280;36021;48.670;6.184;2023-05-08T02:05:05;99386.56;;;15.17;100.00
50123;BME280;36021;48.670;6.184;2023-05-08T02:07:32;99384.81;;;15.21;100.00
50123;BME280;36021;48.670;6.184;2023-05-08T02:10:03;99381.00;;;15.17;100.00
50123;BME280;36021;48.670;6.184;2023-05-08T02:12:30;99385.94;;;15.20;100.00
50123;BME280;36021;48.670;6.184;2023-05-08T02:14:59;99383.22;;;15.06;100.00
50123;BME280;36021;48.670;6.184;2023-05-08T02:17:25;99384.78;;;14.99;100.00
50123;BME280;36021;48.670;6.184;2023-05-08T02:19:51;99392.81;;;15.00;100.00
50123;BME280;36021;48.670;6.184;2023-05-08T02:22:17;99399.63;;;14.94;100.00
50123;BME280;36021;48.670;6.184;2023-05-08T02:24:43;99398.78;;;14.94;100.00
50123;BME280;36021;48.670;6.184;2023-05-08T02:27:11;99413.78;;;14.93;100.00
50123;BME280;36021;48.670;6.184;2023-05-08T02:29:38;99410.53;;;14.91;100.00
50123;BME280;36021;48.670;6.184;2023-05-08T02:32:05;99407.50;;;15.01;100.00
50123;BME280;36021;48.670;6.184;2023-05-08T02:34:33;99406.97;;;14.99;100.00
50123;BME280;36021;48.670;6.184;2023-05-08T02:37:00;99411.91;;;15.02;100.00
50123;BME280;36021;48.670;6.184;2023-05-08T02:39:28;99409.66;;;15.04;100.00
50123;BME280;36021;48.670;6.184;2023-05-08T02:41:56;99410.97;;;15.06;100.00
50123;BME280;36021;48.670;6.184;2023-05-08T02:44:23;99401.81;;;15.06;100.00
50123;BME280;36021;48.670;6.184;2023-05-08T02:46:52;99409.91;;;15.16;100.00
50123;BME280;36021;48.670;6.184;2023-05-08T02:49:24;99413.25;;;15.04;100.00
50123;BME280;36021;48.670;6.184;2023-05-08T02:52:00;99408.38;;;15.10;100.00
50123;BME280;36021;48.670;6.184;2023-05-08T02:54:34;99413.94;;;15.10;100.00
50123;BME280;36021;48.670;6.184;2023-05-08T02:57:07;99416.84;;;15.27;100.00
50123;BME280;36021;48.670;6.184;2023-05-08T02:59:39;99411.72;;;15.43;100.00
50123;BME280;36021;48.670;6.184;2023-05-08T03:02:09;99411.31;;;15.49;100.00
50123;BME280;36021;48.670;6.184;2023-05-08T03:04:36;99406.75;;;15.53;100.00
50123;BME280;36021;48.670;6.184;2023-05-08T03:07:04;99400.31;;;15.67;100.00
50123;BME280;36021;48.670;6.184;2023-05-08T03:09:41;99401.91;;;15.68;100.00
50123;BME280;36021;48.670;6.184;2023-05-08T03:12:13;99404.13;;;15.79;100.00
50123;BME280;36021;48.670;6.184;2023-05-08T03:14:44;99406.22;;;15.74;100.00
50123;BME280;36021;48.670;6.184;2023-05-08T03:17:12;99404.69;;;15.68;100.00
50123;BME280;36021;48.670;6.184;2023-05-08T03:19:40;99402.47;;;15.78;100.00
50123;BME280;36021;48.670;6.184;2023-05-08T03:22:06;99401.66;;;15.78;100.00
50123;BME280;36021;48.670;6.184;2023-05-08T03:24:34;99406.84;;;15.71;100.00
50123;BME280;36021;48.670;6.184;2023-05-08T03:27:01;99405.91;;;15.84;100.00
50123;BME280;36021;48.670;6.184;2023-05-08T03:29:29;99403.97;;;15.84;100.00
50123;BME280;36021;48.670;6.184;2023-05-08T03:31:55;99406.75;;;15.53;100.00
50123;BME280;36021;48.670;6.184;2023-05-08T03:34:23;99416.66;;;15.46;100.00
50123;BME280;36021;48.670;6.184;2023-05-08T03:36:50;99415.41;;;15.30;100.00
50123;BME280;36021;48.670;6.184;2023-05-08T03:39:17;99415.88;;;15.32;100.00
50123;BME280;36021;48.670;6.184;2023-05-08T03:41:44;99419.19;;;15.34;100.00
50123;BME280;36021;48.670;6.184;2023-05-08T03:44:10;99426.75;;;15.20;100.00
50123;BME280;36021;48.670;6.184;2023-05-08T03:46:36;99429.91;;;15.04;100.00
50123;BME280;36021;48.670;6.184;2023-05-08T03:49:03;99427.69;;;15.15;100.00
50123;BME280;36021;48.670;6.184;2023-05-08T03:51:28;99424.16;;;15.23;100.00
50123;BME280;36021;48.670;6.184;2023-05-08T03:53:55;99427.78;;;15.24;100.00
50123;BME280;36021;48.670;6.184;2023-05-08T03:56:22;99434.78;;;15.21;100.00
50123;BME280;36021;48.670;6.184;2023-05-08T04:01:26;99429.97;;;15.13;100.00
50123;BME280;36021;48.670;6.184;2023-05-08T04:04:00;99433.63;;;15.22;100.00
50123;BME280;36021;48.670;6.184;2023-05-08T04:11:46;99426.94;;;15.23;100.00
50123;BME280;36021;48.670;6.184;2023-05-08T04:14:18;99426.66;;;15.25;100.00
50123;BME280;36021;48.670;6.184;2023-05-08T04:16:47;99429.72;;;15.23;100.00
50123;BME280;36021;48.670;6.184;2023-05-08T04:19:17;99425.19;;;15.27;100.00
50123;BME280;36021;48.670;6.184;2023-05-08T04:21:44;99423.16;;;15.19;100.00
50123;BME280;36021;48.670;6.184;2023-05-08T04:24:13;99429.97;;;15.35;100.00
50123;BME280;36021;48.670;6.184;2023-05-08T04:26:39;99429.34;;;15.38;100.00
50123;BME280;36021;48.670;6.184;2023-05-08T04:29:08;99437.44;;;15.48;100.00
50123;BME280;36021;48.670;6.184;2023-05-08T04:31:35;99429.72;;;15.45;100.00
50123;BME280;36021;48.670;6.184;2023-05-08T04:34:03;99434.09;;;15.60;100.00
50123;BME280;36021;48.670;6.184;2023-05-08T04:36:32;99429.72;;;15.68;100.00
50123;BME280;36021;48.670;6.184;2023-05-08T04:38:59;99431.81;;;15.62;100.00
50123;BME280;36021;48.670;6.184;2023-05-08T04:41:25;99429.38;;;15.60;100.00
50123;BME280;36021;48.670;6.184;2023-05-08T04:43:51;99430.44;;;15.51;100.00
50123;BME280;36021;48.670;6.184;2023-05-08T04:46:17;99436.97;;;15.33;100.00
50123;BME280;36021;48.670;6.184;2023-05-08T04:48:43;99440.59;;;15.33;100.00
50123;BME280;36021;48.670;6.184;2023-05-08T04:51:08;99443.47;;;15.28;100.00
50123;BME280;36021;48.670;6.184;2023-05-08T04:53:34;99442.44;;;15.38;100.00
50123;BME280;36021;48.670;6.184;2023-05-08T04:56:01;99443.00;;;15.48;100.00
50123;BME280;36021;48.670;6.184;2023-05-08T04:58:28;99437.81;;;15.55;100.00
50123;BME280;36021;48.670;6.184;2023-05-08T05:00:54;99438.50;;;15.39;100.00
50123;BME280;36021;48.670;6.184;2023-05-08T05:03:20;99440.94;;;15.54;100.00
50123;BME280;36021;48.670;6.184;2023-05-08T05:05:46;99433.75;;;15.39;100.00
50123;BME280;36021;48.670;6.184;2023-05-08T05:08:12;99432.06;;;15.52;100.00
50123;BME280;36021;48.670;6.184;2023-05-08T05:10:38;99437.03;;;15.41;100.00
50123;BME280;36021;48.670;6.184;2023-05-08T05:13:05;99444.50;;;15.32;100.00
50123;BME280;36021;48.670;6.184;2023-05-08T05:15:31;99445.66;;;15.31;100.00
50123;BME280;36021;48.670;6.184;2023-05-08T05:17:56;99453.28;;;15.48;100.00
50123;BME280;36021;48.670;6.184;2023-05-08T05:20:22;99448.09;;;15.55;100.00
50123;BME280;36021;48.670;6.184;2023-05-08T05:22:48;99459.56;;;15.53;100.00
50123;BME280;36021;48.670;6.184;2023-05-08T05:25:13;99454.22;;;15.66;100.00
50123;BME280;36021;48.670;6.184;2023-05-08T05:27:40;99462.41;;;15.71;100.00
50123;BME280;36021;48.670;6.184;2023-05-08T05:30:06;99456.09;;;15.79;100.00
50123;BME280;36021;48.670;6.184;2023-05-08T05:32:32;99457.16;;;15.91;100.00
50123;BME280;36021;48.670;6.184;2023-05-08T05:34:59;99458.44;;;15.85;100.00
50123;BME280;36021;48.670;6.184;2023-05-08T05:37:25;99459.97;;;15.69;100.00
50123;BME280;36021;48.670;6.184;2023-05-08T05:39:52;99461.44;;;15.67;100.00
50123;BME280;36021;48.670;6.184;2023-05-08T05:42:19;99470.91;;;15.66;100.00
50123;BME280;36021;48.670;6.184;2023-05-08T05:44:44;99467.81;;;15.67;100.00
50123;BME280;36021;48.670;6.184;2023-05-08T05:47:10;99466.91;;;15.80;100.00
50123;BME280;36021;48.670;6.184;2023-05-08T05:49:37;99460.38;;;15.85;100.00
50123;BME280;36021;48.670;6.184;2023-05-08T05:52:05;99462.88;;;15.95;100.00
50123;BME280;36021;48.670;6.184;2023-05-08T05:54:31;99457.06;;;16.05;100.00
50123;BME280;36021;48.670;6.184;2023-05-08T05:56:57;99452.31;;;16.05;100.00
50123;BME280;36021;48.670;6.184;2023-05-08T05:59:24;99457.78;;;16.19;100.00
50123;BME280;36021;48.670;6.184;2023-05-08T06:01:50;99453.56;;;16.30;100.00
50123;BME280;36021;48.670;6.184;2023-05-08T06:04:16;99452.78;;;16.38;100.00
50123;BME280;36021;48.670;6.184;2023-05-08T06:06:42;99450.28;;;16.28;100.00
50123;BME280;36021;48.670;6.184;2023-05-08T06:09:07;99440.44;;;16.22;100.00
50123;BME280;36021;48.670;6.184;2023-05-08T06:11:33;99447.31;;;16.16;100.00
50123;BME280;36021;48.670;6.184;2023-05-08T06:14:00;99448.56;;;16.10;100.00
50123;BME280;36021;48.670;6.184;2023-05-08T06:16:26;99450.22;;;16.11;100.00
50123;BME280;36021;48.670;6.184;2023-05-08T06:18:52;99448.72;;;16.05;100.00
50123;BME280;36021;48.670;6.184;2023-05-08T06:21:17;99454.00;;;16.15;100.00
50123;BME280;36021;48.670;6.184;2023-05-08T06:23:43;99457.63;;;16.24;100.00
50123;BME280;36021;48.670;6.184;2023-05-08T06:26:08;99447.53;;;16.37;100.00
50123;BME280;36021;48.670;6.184;2023-05-08T06:28:35;99454.56;;;16.43;100.00
50123;BME280;36021;48.670;6.184;2023-05-08T06:31:00;99446.69;;;16.36;100.00
50123;BME280;36021;48.670;6.184;2023-05-08T06:33:26;99448.78;;;16.22;100.00
50123;BME280;36021;48.670;6.184;2023-05-08T06:35:53;99460.59;;;16.28;100.00
50123;BME280;36021;48.670;6.184;2023-05-08T06:38:18;99455.72;;;16.42;100.00
50123;BME280;36021;48.670;6.184;2023-05-08T06:40:44;99464.56;;;16.44;100.00
50123;BME280;36021;48.670;6.184;2023-05-08T06:43:10;99463.63;;;16.48;100.00
50123;BME280;36021;48.670;6.184;2023-05-08T06:45:36;99468.25;;;16.61;100.00
50123;BME280;36021;48.670;6.184;2023-05-08T06:48:01;99463.34;;;16.67;100.00
50123;BME280;36021;48.670;6.184;2023-05-08T06:50:27;99462.34;;;16.63;100.00
50123;BME280;36021;48.670;6.184;2023-05-08T06:52:53;99465.22;;;16.49;100.00
50123;BME280;36021;48.670;6.184;2023-05-08T06:55:20;99466.88;;;16.42;100.00
50123;BME280;36021;48.670;6.184;2023-05-08T06:57:47;99472.59;;;16.45;100.00
50123;BME280;36021;48.670;6.184;2023-05-08T07:00:14;99475.97;;;16.34;100.00
50123;BME280;36021;48.670;6.184;2023-05-08T07:02:39;99469.13;;;16.40;100.00
50123;BME280;36021;48.670;6.184;2023-05-08T07:05:05;99468.53;;;16.51;100.00
50123;BME280;36021;48.670;6.184;2023-05-08T07:07:31;99469.66;;;16.50;100.00
50123;BME280;36021;48.670;6.184;2023-05-08T07:09:56;99471.97;;;16.48;100.00
50123;BME280;36021;48.670;6.184;2023-05-08T07:12:21;99473.91;;;16.48;100.00
50123;BME280;36021;48.670;6.184;2023-05-08T07:14:49;99471.31;;;16.51;100.00
50123;BME280;36021;48.670;6.184;2023-05-08T07:17:14;99479.59;;;16.43;100.00
50123;BME280;36021;48.670;6.184;2023-05-08T07:19:39;99479.31;;;16.53;100.00
50123;BME280;36021;48.670;6.184;2023-05-08T07:22:05;99469.41;;;16.60;100.00
50123;BME280;36021;48.670;6.184;2023-05-08T07:24:31;99475.31;;;16.67;100.00
50123;BME280;36021;48.670;6.184;2023-05-08T07:26:56;99471.06;;;16.79;100.00
50123;BME280;36021;48.670;6.184;2023-05-08T07:29:24;99472.22;;;16.86;100.00
50123;BME280;36021;48.670;6.184;2023-05-08T07:31:50;99472.41;;;16.90;100.00
50123;BME280;36021;48.670;6.184;2023-05-08T07:34:17;99478.78;;;16.90;100.00
50123;BME280;36021;48.670;6.184;2023-05-08T07:36:43;99479.63;;;16.91;100.00
50123;BME280;36021;48.670;6.184;2023-05-08T07:39:09;99486.97;;;16.95;100.00
50123;BME280;36021;48.670;6.184;2023-05-08T07:41:37;99485.00;;;16.96;100.00
50123;BME280;36021;48.670;6.184;2023-05-08T07:44:05;99486.31;;;16.98;100.00
50123;BME280;36021;48.670;6.184;2023-05-08T07:46:30;99488.16;;;16.94;100.00
50123;BME280;36021;48.670;6.184;2023-05-08T07:48:56;99498.59;;;16.80;100.00
50123;BME280;36021;48.670;6.184;2023-05-08T07:51:21;99498.22;;;16.64;100.00
50123;BME280;36021;48.670;6.184;2023-05-08T07:53:47;99494.28;;;16.57;100.00
50123;BME280;36021;48.670;6.184;2023-05-08T07:56:16;99504.25;;;16.58;100.00
50123;BME280;36021;48.670;6.184;2023-05-08T07:58:43;99500.19;;;16.73;100.00
50123;BME280;36021;48.670;6.184;2023-05-08T08:01:10;99501.19;;;16.77;100.00
50123;BME280;36021;48.670;6.184;2023-05-08T08:03:36;99508.84;;;16.62;100.00
50123;BME280;36021;48.670;6.184;2023-05-08T08:06:01;99508.53;;;16.55;100.00
50123;BME280;36021;48.670;6.184;2023-05-08T08:08:27;99505.41;;;16.65;100.00
50123;BME280;36021;48.670;6.184;2023-05-08T08:10:52;99506.94;;;16.72;100.00
50123;BME280;36021;48.670;6.184;2023-05-08T08:13:19;99497.41;;;16.73;100.00
50123;BME280;36021;48.670;6.184;2023-05-08T08:15:45;99505.63;;;16.86;100.00
50123;BME280;36021;48.670;6.184;2023-05-08T08:18:10;99509.56;;;16.85;100.00
50123;BME280;36021;48.670;6.184;2023-05-08T08:20:37;99506.28;;;16.83;100.00
50123;BME280;36021;48.670;6.184;2023-05-08T08:23:02;99507.28;;;16.87;100.00
50123;BME280;36021;48.670;6.184;2023-05-08T08:25:28;99512.19;;;16.82;100.00
50123;BME280;36021;48.670;6.184;2023-05-08T08:27:54;99509.09;;;16.92;100.00
50123;BME280;36021;48.670;6.184;2023-05-08T08:30:20;99506.00;;;17.02;100.00
50123;BME280;36021;48.670;6.184;2023-05-08T08:32:46;99502.03;;;16.86;100.00
50123;BME280;36021;48.670;6.184;2023-05-08T08:35:14;99508.94;;;16.97;100.00
50123;BME280;36021;48.670;6.184;2023-05-08T08:37:40;99497.97;;;17.00;100.00
50123;BME280;36021;48.670;6.184;2023-05-08T08:40:06;99506.84;;;17.11;100.00
50123;BME280;36021;48.670;6.184;2023-05-08T08:42:34;99499.31;;;17.20;100.00
50123;BME280;36021;48.670;6.184;2023-05-08T08:45:00;99505.03;;;17.24;100.00
50123;BME280;36021;48.670;6.184;2023-05-08T08:47:27;99503.22;;;17.19;100.00
50123;BME280;36021;48.670;6.184;2023-05-08T08:49:57;99509.94;;;17.18;100.00
50123;BME280;36021;48.670;6.184;2023-05-08T08:54:59;99517.00;;;17.07;100.00
50123;BME280;36021;48.670;6.184;2023-05-08T08:57:25;99527.84;;;16.69;100.00
50123;BME280;36021;48.670;6.184;2023-05-08T08:59:52;99532.28;;;16.70;100.00
50123;BME280;36021;48.670;6.184;2023-05-08T09:02:19;99530.97;;;16.67;100.00
50123;BME280;36021;48.670;6.184;2023-05-08T09:04:48;99531.63;;;16.64;100.00
50123;BME280;36021;48.670;6.184;2023-05-08T09:07:13;99534.59;;;16.77;100.00
50123;BME280;36021;48.670;6.184;2023-05-08T09:09:39;99526.41;;;16.72;100.00
50123;BME280;36021;48.670;6.184;2023-05-08T09:12:09;99529.56;;;16.96;100.00
50123;BME280;36021;48.670;6.184;2023-05-08T09:14:34;99524.84;;;17.05;100.00
50123;BME280;36021;48.670;6.184;2023-05-08T09:17:00;99523.53;;;16.94;100.00
50123;BME280;36021;48.670;6.184;2023-05-08T09:19:26;99528.44;;;16.97;100.00
50123;BME280;36021;48.670;6.184;2023-05-08T09:21:52;99522.91;;;17.14;100.00
50123;BME280;36021;48.670;6.184;2023-05-08T09:24:18;99514.72;;;17.26;100.00
50123;BME280;36021;48.670;6.184;2023-05-08T09:26:43;99511.44;;;17.41;100.00
50123;BME280;36021;48.670;6.184;2023-05-08T09:29:10;99518.66;;;17.42;100.00
50123;BME280;36021;48.670;6.184;2023-05-08T09:31:38;99515.38;;;17.32;100.00
50123;BME280;36021;48.670;6.184;2023-05-08T09:34:04;99520.63;;;17.50;100.00
50123;BME280;36021;48.670;6.184;2023-05-08T09:36:30;99520.31;;;17.60;100.00
50123;BME280;36021;48.670;6.184;2023-05-08T09:38:56;99518.19;;;17.66;100.00
50123;BME280;36021;48.670;6.184;2023-05-08T09:41:22;99522.28;;;17.68;100.00
50123;BME280;36021;48.670;6.184;2023-05-08T09:44:02;99517.03;;;17.76;100.00
50123;BME280;36021;48.670;6.184;2023-05-08T09:46:28;99518.00;;;17.80;100.00
50123;BME280;36021;48.670;6.184;2023-05-08T09:48:57;99516.69;;;17.77;100.00
50123;BME280;36021;48.670;6.184;2023-05-08T09:51:23;99520.13;;;17.48;100.00
50123;BME280;36021;48.670;6.184;2023-05-08T09:53:50;99515.22;;;17.37;100.00
50123;BME280;36021;48.670;6.184;2023-05-08T09:58:55;99536.66;;;17.19;100.00
50123;BME280;36021;48.670;6.184;2023-05-08T10:01:36;99530.09;;;16.98;100.00
50123;BME280;36021;48.670;6.184;2023-05-08T10:04:03;99532.41;;;17.13;100.00
50123;BME280;36021;48.670;6.184;2023-05-08T10:06:30;99533.34;;;17.00;100.00
50123;BME280;36021;48.670;6.184;2023-05-08T10:09:11;99528.44;;;16.97;100.00
50123;BME280;36021;48.670;6.184;2023-05-08T10:11:38;99527.00;;;17.08;100.00
50123;BME280;36021;48.670;6.184;2023-05-08T10:14:06;99527.00;;;17.08;100.00
50123;BME280;36021;48.670;6.184;2023-05-08T10:16:36;99521.91;;;17.10;100.00
50123;BME280;36021;48.670;6.184;2023-05-08T10:19:03;99523.03;;;17.09;100.00
50123;BME280;36021;48.670;6.184;2023-05-08T10:21:34;99523.25;;;17.21;100.00
50123;BME280;36021;48.670;6.184;2023-05-08T10:24:03;99525.34;;;17.15;100.00
50123;BME280;36021;48.670;6.184;2023-05-08T10:26:29;99524.53;;;17.15;100.00
50123;BME280;36021;48.670;6.184;2023-05-08T10:28:57;99528.66;;;17.17;100.00
50123;BME280;36021;48.670;6.184;2023-05-08T10:31:24;99526.50;;;17.23;100.00
50123;BME280;36021;48.670;6.184;2023-05-08T10:33:54;99529.47;;;17.27;100.00
50123;BME280;36021;48.670;6.184;2023-05-08T10:36:20;99529.13;;;17.28;100.00
50123;BME280;36021;48.670;6.184;2023-05-08T10:38:49;99529.78;;;17.25;100.00
50123;BME280;36021;48.670;6.184;2023-05-08T10:41:14;99521.28;;;17.30;100.00
50123;BME280;36021;48.670;6.184;2023-05-08T10:43:41;99523.88;;;17.35;100.00
50123;BME280;36021;48.670;6.184;2023-05-08T10:46:14;99523.88;;;17.35;100.00
50123;BME280;36021;48.670;6.184;2023-05-08T10:57:05;99510.59;;;17.92;100.00
50123;BME280;36021;48.670;6.184;2023-05-08T10:59:33;99496.94;;;18.08;100.00
50123;BME280;36021;48.670;6.184;2023-05-08T11:02:06;99508.06;;;18.16;100.00
50123;BME280;36021;48.670;6.184;2023-05-08T11:04:32;99505.94;;;18.22;100.00
50123;BME280;36021;48.670;6.184;2023-05-08T11:06:58;99497.56;;;18.22;100.00
50123;BME280;36021;48.670;6.184;2023-05-08T11:14:35;99479.19;;;18.59;100.00
50123;BME280;36021;48.670;6.184;2023-05-08T11:17:03;99480.59;;;18.73;100.00
50123;BME280;36021;48.670;6.184;2023-05-08T11:19:29;99474.56;;;18.63;100.00
50123;BME280;36021;48.670;6.184;2023-05-08T11:24:39;99476.88;;;18.61;100.00
50123;BME280;36021;48.670;6.184;2023-05-08T11:27:10;99474.84;;;18.70;100.00
50123;BME280;36021;48.670;6.184;2023-05-08T11:29:35;99469.03;;;18.84;100.00
50123;BME280;36021;48.670;6.184;2023-05-08T11:32:01;99471.75;;;18.92;100.00
50123;BME280;36021;48.670;6.184;2023-05-08T11:37:16;99472.91;;;18.62;100.00
50123;BME280;36021;48.670;6.184;2023-05-08T11:39:42;99474.13;;;18.52;100.00
50123;BME280;36021;48.670;6.184;2023-05-08T11:45:03;99469.22;;;18.79;100.00
50123;BME280;36021;48.670;6.184;2023-05-08T11:47:31;99469.03;;;18.84;100.00
50123;BME280;36021;48.670;6.184;2023-05-08T11:49:58;99476.13;;;18.81;100.00
50123;BME280;36021;48.670;6.184;2023-05-08T11:52:24;99470.41;;;18.98;100.00
50123;BME280;36021;48.670;6.184;2023-05-08T11:54:52;99468.50;;;18.61;100.00
50123;BME280;36021;48.670;6.184;2023-05-08T11:57:19;99455.75;;;19.22;100.00
50123;BME280;36021;48.670;6.184;2023-05-08T11:59:48;99460.16;;;19.64;100.00
50123;BME280;36021;48.670;6.184;2023-05-08T12:02:13;99460.25;;;19.89;100.00
50123;BME280;36021;48.670;6.184;2023-05-08T12:04:42;99465.19;;;20.16;100.00
50123;BME280;36021;48.670;6.184;2023-05-08T12:07:08;99457.53;;;20.25;100.00
50123;BME280;36021;48.670;6.184;2023-05-08T12:09:34;99453.53;;;20.02;100.00
50123;BME280;36021;48.670;6.184;2023-05-08T12:12:02;99458.34;;;19.27;100.00
50123;BME280;36021;48.670;6.184;2023-05-08T12:14:30;99456.28;;;19.90;100.00
50123;BME280;36021;48.670;6.184;2023-05-08T12:16:55;99462.19;;;20.21;100.00
50123;BME280;36021;48.670;6.184;2023-05-08T12:19:21;99448.84;;;20.06;100.00
50123;BME280;36021;48.670;6.184;2023-05-08T12:21:47;99459.78;;;20.68;100.00
50123;BME280;36021;48.670;6.184;2023-05-08T12:24:14;99447.94;;;20.26;100.00
50123;BME280;36021;48.670;6.184;2023-05-08T12:26:40;99447.03;;;20.22;100.00
50123;BME280;36021;48.670;6.184;2023-05-08T12:29:06;99453.84;;;20.57;100.00
50123;BME280;36021;48.670;6.184;2023-05-08T12:31:33;99453.94;;;20.37;100.00
50123;BME280;36021;48.670;6.184;2023-05-08T12:34:01;99454.53;;;20.42;100.00
50123;BME280;36021;48.670;6.184;2023-05-08T12:36:26;99453.09;;;20.12;100.00
50123;BME280;36021;48.670;6.184;2023-05-08T12:39:07;99452.47;;;19.61;100.00
50123;BME280;36021;48.670;6.184;2023-05-08T12:41:33;99469.59;;;19.39;100.00
50123;BME280;36021;48.670;6.184;2023-05-08T12:43:59;99463.63;;;19.49;100.00
50123;BME280;36021;48.670;6.184;2023-05-08T12:46:25;99470.97;;;19.33;100.00
50123;BME280;36021;48.670;6.184;2023-05-08T12:48:59;99462.88;;;19.40;100.00
50123;BME280;36021;48.670;6.184;2023-05-08T12:51:28;99463.78;;;19.03;100.00
50123;BME280;36021;48.670;6.184;2023-05-08T12:53:54;99459.56;;;19.17;100.00
50123;BME280;36021;48.670;6.184;2023-05-08T12:56:20;99449.00;;;19.02;100.00
50123;BME280;36021;48.670;6.184;2023-05-08T12:58:46;99459.09;;;19.15;100.00
50123;BME280;36021;48.670;6.184;2023-05-08T13:01:14;99458.97;;;18.91;100.00
50123;BME280;36021;48.670;6.184;2023-05-08T13:03:40;99459.31;;;18.60;100.00
50123;BME280;36021;48.670;6.184;2023-05-08T13:06:06;99453.47;;;18.74;100.00
50123;BME280;36021;48.670;6.184;2023-05-08T13:08:33;99452.50;;;18.70;100.00
50123;BME280;36021;48.670;6.184;2023-05-08T13:10:59;99452.50;;;18.70;100.00
50123;BME280;36021;48.670;6.184;2023-05-08T13:13:26;99446.97;;;18.91;100.00
50123;BME280;36021;48.670;6.184;2023-05-08T13:15:54;99440.44;;;19.07;100.00
50123;BME280;36021;48.670;6.184;2023-05-08T13:18:22;99433.53;;;19.05;100.00
50123;BME280;36021;48.670;6.184;2023-05-08T13:20:48;99425.97;;;19.05;100.00
50123;BME280;36021;48.670;6.184;2023-05-08T13:23:13;99429.31;;;19.19;100.00
50123;BME280;36021;48.670;6.184;2023-05-08T13:25:40;99421.88;;;19.23;100.00
50123;BME280;36021;48.670;6.184;2023-05-08T13:28:08;99419.22;;;19.06;100.00
50123;BME280;36021;48.670;6.184;2023-05-08T13:30:34;99414.50;;;19.40;100.00
50123;BME280;36021;48.670;6.184;2023-05-08T13:33:00;99408.28;;;19.34;100.00
50123;BME280;36021;48.670;6.184;2023-05-08T13:35:27;99407.47;;;19.54;100.00
50123;BME280;36021;48.670;6.184;2023-05-08T13:37:53;99406.50;;;19.50;100.00
50123;BME280;36021;48.670;6.184;2023-05-08T13:40:18;99404.63;;;19.42;100.00